Time;durP1;ratioP1;P1;durP2;ratioP2;P2;SDS_P1;SDS_P2;PMS_P1;PMS_P2;Temp;Humidity;BMP_temperature;BMP_pressure;BME280_temperature;BME280_humidity;BME280_pressure;Samples;Min_cycle;Max_cycle;Signal;HPM_P1;HPM_P2
2022/01/09 00:00:13;;;;;;;2.88;2.67;;;5.90;99.90;;;;;;5047771;28;20021;-43
2022/01/09 00:02:39;;;;;;;2.95;2.75;;;5.90;99.90;;;;;;5048104;28;20036;-44
2022/01/09 00:05:05;;;;;;;4.25;3.25;;;5.90;99.90;;;;;;5047238;28;20029;-43
2022/01/09 00:07:30;;;;;;;3.65;3.35;;;5.90;99.90;;;;;;5048236;28;20420;-43
2022/01/09 00:09:56;;;;;;;3.38;3.08;;;5.80;99.90;;;;;;5047360;28;20025;-42
2022/01/09 00:12:25;;;;;;;3.47;3.17;;;5.80;99.90;;;;;;5048300;28;20045;-43
2022/01/09 00:14:52;;;;;;;3.40;3.10;;;5.80;99.90;;;;;;5045265;28;20025;-43
2022/01/09 00:17:18;;;;;;;3.95;3.55;;;5.90;99.90;;;;;;5047402;28;20037;-44
2022/01/09 00:19:43;;;;;;;4.53;3.35;;;5.90;99.90;;;;;;5047648;28;20416;-44
2022/01/09 00:22:09;;;;;;;4.13;3.72;;;5.90;99.90;;;;;;5047971;28;20117;-44
2022/01/09 00:24:35;;;;;;;3.72;3.42;;;5.90;99.90;;;;;;5046851;28;20036;-44
2022/01/09 00:27:00;;;;;;;3.20;3.00;;;6.00;99.90;;;;;;5047757;28;20082;-44
2022/01/09 00:29:26;;;;;;;3.30;3.00;;;6.00;99.90;;;;;;5047729;28;20103;-43
2022/01/09 00:31:51;;;;;;;3.33;2.92;;;6.00;99.90;;;;;;5046672;28;20025;-44
2022/01/09 00:34:17;;;;;;;3.40;3.05;;;6.00;99.90;;;;;;5047862;28;20036;-43
2022/01/09 00:36:42;;;;;;;3.67;2.70;;;6.00;99.90;;;;;;5047855;28;20021;-43
2022/01/09 00:39:08;;;;;;;2.97;2.78;;;6.00;99.90;;;;;;5046713;28;20513;-44
2022/01/09 00:41:33;;;;;;;2.53;2.33;;;6.00;99.90;;;;;;5047270;28;20040;-44
2022/01/09 00:43:59;;;;;;;2.78;2.58;;;6.00;99.90;;;;;;5047747;28;20028;-44
2022/01/09 00:46:24;;;;;;;2.83;2.63;;;6.00;99.90;;;;;;5046316;28;20086;-43
2022/01/09 00:48:50;;;;;;;2.50;2.30;;;6.00;99.90;;;;;;5046469;28;20492;-44
2022/01/09 00:51:15;;;;;;;2.63;2.42;;;6.00;99.90;;;;;;5046976;28;20512;-44
2022/01/09 00:53:41;;;;;;;4.50;2.65;;;6.00;99.90;;;;;;5046736;28;20111;-44
2022/01/09 00:56:06;;;;;;;3.25;2.97;;;6.00;99.90;;;;;;5047147;28;20388;-43
2022/01/09 00:58:32;;;;;;;2.95;2.75;;;6.00;99.90;;;;;;5047132;28;20041;-43
2022/01/09 01:00:58;;;;;;;3.50;3.20;;;6.10;99.90;;;;;;5046464;28;20040;-44
2022/01/09 01:03:23;;;;;;;3.10;2.90;;;6.10;99.90;;;;;;5046593;28;20052;-44
2022/01/09 01:05:49;;;;;;;3.10;2.90;;;6.00;99.90;;;;;;5047082;28;20548;-43
2022/01/09 01:08:14;;;;;;;3.17;2.97;;;6.00;99.90;;;;;;5046619;28;20550;-43
2022/01/09 01:10:40;;;;;;;3.08;2.88;;;6.00;99.90;;;;;;5046859;28;20066;-43
2022/01/09 01:13:05;;;;;;;2.88;2.67;;;6.00;99.90;;;;;;5046732;28;20045;-43
2022/01/09 01:15:34;;;;;;;2.70;2.50;;;6.00;99.90;;;;;;5046019;28;20021;-43
2022/01/09 01:17:59;;;;;;;3.00;2.80;;;6.00;99.90;;;;;;5046834;28;20032;-43
2022/01/09 01:20:25;;;;;;;2.80;2.60;;;6.00;99.90;;;;;;5046550;28;20025;-43
2022/01/09 01:22:52;;;;;;;2.45;2.20;;;6.00;99.90;;;;;;5046262;28;20040;-43
2022/01/09 01:25:21;;;;;;;2.90;2.58;;;6.00;99.90;;;;;;5047244;28;20029;-43
2022/01/09 01:27:47;;;;;;;3.70;3.30;;;6.00;99.90;;;;;;5045871;28;20021;-43
2022/01/09 01:30:13;;;;;;;3.42;2.88;;;6.00;99.90;;;;;;5046965;28;20025;-43
2022/01/09 01:32:40;;;;;;;4.30;2.10;;;6.00;99.90;;;;;;5046575;28;20041;-43
2022/01/09 01:35:07;;;;;;;6.07;2.38;;;6.10;99.90;;;;;;5046253;28;20483;-44
2022/01/09 01:37:41;;;;;;;8.90;2.17;;;6.10;99.90;;;;;;5046359;28;20031;-44
2022/01/09 01:40:10;;;;;;;5.82;2.05;;;6.10;99.90;;;;;;5046477;28;20029;-43
2022/01/09 01:42:35;;;;;;;7.70;2.17;;;6.10;99.90;;;;;;5045701;28;20020;-43
2022/01/09 01:45:02;;;;;;;8.52;2.50;;;6.10;99.90;;;;;;5046781;28;20099;-43
2022/01/09 01:47:27;;;;;;;13.63;2.92;;;6.10;99.90;;;;;;5046501;28;20025;-43
2022/01/09 01:49:53;;;;;;;12.98;4.03;;;6.00;99.90;;;;;;5046104;28;20476;-43
2022/01/09 01:52:33;;;;;;;9.68;2.83;;;6.00;99.90;;;;;;5046423;28;20029;-43
2022/01/09 01:54:58;;;;;;;11.07;3.63;;;6.10;99.90;;;;;;5035070;28;20021;-43
2022/01/09 01:57:24;;;;;;;17.63;3.42;;;6.10;99.90;;;;;;5045458;28;20017;-43
2022/01/09 01:59:49;;;;;;;19.80;4.20;;;6.10;99.90;;;;;;5049027;28;20465;-43
2022/01/09 02:02:15;;;;;;;19.13;3.92;;;6.10;99.90;;;;;;5050752;28;20040;-43
2022/01/09 02:04:40;;;;;;;22.52;3.60;;;6.10;99.90;;;;;;5049285;28;20021;-43
2022/01/09 02:07:07;;;;;;;14.77;3.60;;;6.20;99.90;;;;;;5050738;28;20349;-43
2022/01/09 02:09:33;;;;;;;16.38;2.90;;;6.20;99.90;;;;;;5049092;28;20036;-43
2022/01/09 02:12:00;;;;;;;15.38;2.50;;;6.30;99.90;;;;;;5050047;28;20029;-43
2022/01/09 02:14:28;;;;;;;9.65;2.65;;;6.30;99.90;;;;;;5050452;28;20031;-44
2022/01/09 02:16:53;;;;;;;23.13;3.78;;;6.30;99.90;;;;;;5029338;28;20022;-42
2022/01/09 02:19:22;;;;;;;13.65;2.50;;;6.30;99.90;;;;;;5044427;28;20036;-44
2022/01/09 02:21:48;;;;;;;19.30;3.72;;;6.30;99.90;;;;;;5050431;28;20021;-42
2022/01/09 02:24:14;;;;;;;20.52;3.65;;;6.40;99.90;;;;;;5049299;28;20031;-43
2022/01/09 02:26:43;;;;;;;21.90;3.85;;;6.40;99.90;;;;;;5049840;28;20574;-43
2022/01/09 02:29:09;;;;;;;20.35;4.20;;;6.40;99.90;;;;;;5049601;28;20682;-43
2022/01/09 02:31:35;;;;;;;24.52;4.30;;;6.50;99.90;;;;;;5049094;28;20021;-43
2022/01/09 02:34:01;;;;;;;29.50;4.93;;;6.50;99.90;;;;;;5049731;28;20040;-42
2022/01/09 02:36:27;;;;;;;26.80;5.03;;;6.50;99.90;;;;;;5050260;28;20028;-43
2022/01/09 02:38:52;;;;;;;42.17;7.05;;;6.50;99.90;;;;;;5048905;28;20109;-44
2022/01/09 02:41:18;;;;;;;35.13;5.20;;;6.60;99.90;;;;;;5050139;28;20047;-42
2022/01/09 02:43:43;;;;;;;21.55;4.03;;;6.60;99.90;;;;;;5049354;28;20021;-43
2022/01/09 02:46:16;;;;;;;29.15;4.90;;;6.60;99.90;;;;;;5048929;28;20025;-43
2022/01/09 02:48:42;;;;;;;26.85;4.28;;;6.60;99.90;;;;;;5049671;28;20648;-45
2022/01/09 02:51:14;;;;;;;26.15;5.28;;;6.60;99.90;;;;;;5049402;28;20056;-43
2022/01/09 02:53:44;;;;;;;23.67;4.35;;;6.60;99.90;;;;;;5048468;28;20037;-42
2022/01/09 02:56:10;;;;;;;26.05;4.35;;;6.60;99.90;;;;;;5049367;28;20029;-43
2022/01/09 02:58:37;;;;;;;17.27;3.55;;;6.60;99.90;;;;;;5049546;28;20035;-43
2022/01/09 03:01:04;;;;;;;21.83;4.20;;;6.60;99.90;;;;;;5048397;28;20029;-43
2022/01/09 03:03:29;;;;;;;25.60;4.15;;;6.70;99.90;;;;;;5049167;28;20547;-43
2022/01/09 03:05:55;;;;;;;26.52;5.00;;;6.60;99.90;;;;;;5048249;28;20033;-43
2022/01/09 03:08:20;;;;;;;21.42;3.88;;;6.70;99.90;;;;;;5049589;28;20013;-43
2022/01/09 03:10:46;;;;;;;26.33;4.22;;;6.60;99.90;;;;;;5047459;28;20025;-44
2022/01/09 03:13:12;;;;;;;32.13;5.93;;;6.70;99.90;;;;;;5049132;28;20072;-43
2022/01/09 03:15:37;;;;;;;27.35;5.13;;;6.70;99.90;;;;;;5048760;28;20025;-43
2022/01/09 03:18:04;;;;;;;22.15;3.55;;;6.70;99.90;;;;;;5048839;28;20388;-43
2022/01/09 03:20:29;;;;;;;24.42;4.45;;;6.70;99.90;;;;;;5047661;28;20039;-44
2022/01/09 03:22:56;;;;;;;24.80;5.03;;;6.70;99.90;;;;;;5049411;28;20033;-42
2022/01/09 03:25:22;;;;;;;22.85;4.22;;;6.60;99.90;;;;;;5049071;28;20027;-43
2022/01/09 03:27:49;;;;;;;23.20;5.13;;;6.60;99.90;;;;;;5048234;28;20039;-43
2022/01/09 03:30:20;;;;;;;20.15;3.95;;;6.60;99.90;;;;;;5049040;28;20121;-43
2022/01/09 03:32:47;;;;;;;19.20;3.72;;;6.60;99.90;;;;;;5048409;28;20032;-43
2022/01/09 03:35:18;;;;;;;23.40;4.22;;;6.60;99.90;;;;;;5048189;28;20142;-44
2022/01/09 03:37:45;;;;;;;24.60;3.90;;;6.50;99.90;;;;;;5047707;28;20747;-43
2022/01/09 03:40:22;;;;;;;20.15;3.22;;;6.50;99.90;;;;;;5049120;28;20067;-44
2022/01/09 03:42:51;;;;;;;25.73;4.38;;;6.50;99.90;;;;;;5047585;28;20049;-43
2022/01/09 03:45:17;;;;;;;33.03;4.97;;;6.50;99.90;;;;;;5049188;28;20029;-43
2022/01/09 03:47:49;;;;;;;25.65;3.88;;;6.60;99.90;;;;;;5047696;28;20037;-43
2022/01/09 03:50:17;;;;;;;16.48;3.53;;;6.50;99.90;;;;;;5048117;28;20029;-44
2022/01/09 03:52:42;;;;;;;19.20;4.05;;;6.60;99.90;;;;;;5048090;28;20464;-43
2022/01/09 03:55:10;;;;;;;29.65;4.25;;;6.60;99.90;;;;;;5047247;28;20016;-42
2022/01/09 03:57:39;;;;;;;27.23;4.55;;;6.60;99.90;;;;;;5048009;28;20087;-44
2022/01/09 04:00:08;;;;;;;22.85;4.50;;;6.50;99.90;;;;;;5048546;28;20048;-43
2022/01/09 04:02:37;;;;;;;22.23;5.18;;;6.50;99.90;;;;;;5047240;28;20195;-45
2022/01/09 04:05:03;;;;;;;24.55;4.25;;;6.50;99.90;;;;;;5048163;28;20021;-43
2022/01/09 04:07:28;;;;;;;20.10;3.50;;;6.50;99.90;;;;;;5047644;28;20365;-43
2022/01/09 04:09:54;;;;;;;22.40;3.80;;;6.50;99.90;;;;;;5047264;28;20104;-43
2022/01/09 04:12:30;;;;;;;14.13;2.92;;;6.50;99.90;;;;;;5047773;28;20064;-43
2022/01/09 04:14:56;;;;;;;17.42;3.25;;;6.50;99.90;;;;;;5047650;28;20021;-43
2022/01/09 04:17:34;;;;;;;16.63;3.75;;;6.50;99.90;;;;;;5047540;28;20082;-43
2022/01/09 04:20:00;;;;;;;28.08;4.53;;;6.50;99.90;;;;;;5047947;28;20100;-43
2022/01/09 04:22:25;;;;;;;29.63;4.20;;;6.50;99.90;;;;;;5047158;28;20108;-42
2022/01/09 04:24:51;;;;;;;20.13;3.30;;;6.50;99.90;;;;;;5047624;28;20013;-44
2022/01/09 04:27:16;;;;;;;15.80;4.35;;;6.50;99.90;;;;;;5047699;28;20555;-43
2022/01/09 04:29:41;;;;;;;17.27;3.80;;;6.50;99.90;;;;;;5047289;28;20414;-44
2022/01/09 04:32:08;;;;;;;18.92;3.80;;;6.50;99.90;;;;;;5046625;28;20025;-42
2022/01/09 04:34:33;;;;;;;23.08;4.40;;;6.50;99.90;;;;;;5047628;28;20078;-44
2022/01/09 04:37:00;;;;;;;18.05;4.10;;;6.40;99.90;;;;;;5047631;28;20545;-43
2022/01/09 04:39:26;;;;;;;18.08;3.10;;;6.40;99.90;;;;;;5046548;28;20100;-43
2022/01/09 04:41:52;;;;;;;15.25;3.40;;;6.40;99.90;;;;;;5047461;28;20609;-43
2022/01/09 04:44:18;;;;;;;22.63;4.53;;;6.40;99.90;;;;;;5046843;28;20033;-43
2022/01/09 04:46:50;;;;;;;19.70;3.40;;;6.40;99.90;;;;;;5047698;28;20136;-44
2022/01/09 04:49:17;;;;;;;19.25;3.22;;;6.40;99.90;;;;;;5047392;28;20514;-44
2022/01/09 04:51:43;;;;;;;15.50;2.78;;;6.40;99.90;;;;;;5046475;28;20055;-44
2022/01/09 04:54:08;;;;;;;17.83;4.63;;;6.40;99.90;;;;;;5046849;28;20037;-43
2022/01/09 04:56:34;;;;;;;19.95;3.25;;;6.40;99.90;;;;;;5047577;28;20480;-44
2022/01/09 04:58:59;;;;;;;17.70;3.22;;;6.40;99.90;;;;;;5046391;28;20744;-43
2022/01/09 05:01:27;;;;;;;17.00;3.10;;;6.30;99.90;;;;;;5047092;28;20052;-44
2022/01/09 05:03:53;;;;;;;20.95;4.10;;;6.30;99.90;;;;;;5046668;28;20488;-43
2022/01/09 05:06:19;;;;;;;19.33;4.45;;;6.30;99.90;;;;;;5046767;28;20082;-43
2022/01/09 05:08:45;;;;;;;18.58;3.38;;;6.30;99.90;;;;;;5046908;28;20128;-44
2022/01/09 05:11:11;;;;;;;16.10;4.43;;;6.30;99.90;;;;;;5047267;28;20451;-43
2022/01/09 05:13:37;;;;;;;19.27;3.25;;;6.30;99.90;;;;;;5046490;28;20047;-43
2022/01/09 05:16:02;;;;;;;15.40;3.10;;;6.30;99.90;;;;;;5046937;28;20017;-43
2022/01/09 05:18:28;;;;;;;13.63;3.28;;;6.30;99.90;;;;;;5046747;28;20491;-44
2022/01/09 05:20:53;;;;;;;20.48;3.75;;;6.30;99.90;;;;;;5045900;28;20094;-44
2022/01/09 05:23:19;;;;;;;15.43;3.20;;;6.30;99.90;;;;;;5047586;28;20029;-43
2022/01/09 05:25:44;;;;;;;16.17;3.55;;;6.20;99.90;;;;;;5046785;28;20048;-43
2022/01/09 05:28:10;;;;;;;21.30;3.88;;;6.20;99.90;;;;;;5046607;28;20029;-44
2022/01/09 05:30:36;;;;;;;17.02;3.80;;;6.20;99.90;;;;;;5046481;28;20025;-43
2022/01/09 05:33:01;;;;;;;16.90;3.15;;;6.10;99.90;;;;;;5046680;28;20177;-44
2022/01/09 05:35:27;;;;;;;21.95;4.30;;;6.10;99.90;;;;;;5049491;28;20418;-44
2022/01/09 05:37:53;;;;;;;15.05;3.97;;;6.10;99.90;;;;;;5051105;28;20021;-43
2022/01/09 05:40:19;;;;;;;14.85;2.90;;;6.00;99.90;;;;;;5051243;28;20473;-43
2022/01/09 05:42:46;;;;;;;11.40;3.40;;;6.00;99.90;;;;;;5049927;28;20032;-44
2022/01/09 05:45:11;;;;;;;16.17;2.38;;;6.00;99.90;;;;;;5050774;28;20043;-44
2022/01/09 05:47:37;;;;;;;13.27;2.88;;;6.00;99.90;;;;;;5050573;28;20746;-44
2022/01/09 05:50:05;;;;;;;20.63;2.72;;;6.00;99.90;;;;;;5050331;28;20045;-44
2022/01/09 05:52:30;;;;;;;14.00;2.85;;;6.00;99.90;;;;;;5050367;28;20475;-42
2022/01/09 05:54:56;;;;;;;13.80;2.75;;;6.00;99.90;;;;;;5049739;28;20049;-43
2022/01/09 05:57:21;;;;;;;14.88;2.95;;;6.00;99.90;;;;;;5050689;28;20048;-42
2022/01/09 05:59:47;;;;;;;15.35;2.88;;;6.00;99.90;;;;;;5050486;28;20025;-44
2022/01/09 06:02:12;;;;;;;18.00;3.30;;;6.00;99.90;;;;;;5049843;28;20037;-44
2022/01/09 06:04:38;;;;;;;14.43;2.70;;;6.00;99.90;;;;;;5050681;28;20025;-43
2022/01/09 06:07:03;;;;;;;16.70;3.35;;;6.10;99.90;;;;;;5050008;28;20120;-43
2022/01/09 06:09:29;;;;;;;17.80;3.20;;;6.10;99.90;;;;;;5049826;28;20021;-44
2022/01/09 06:11:54;;;;;;;10.65;2.53;;;6.10;99.90;;;;;;5050154;28;20083;-42
2022/01/09 06:14:20;;;;;;;18.58;3.72;;;6.10;99.90;;;;;;5050573;28;20665;-43
2022/01/09 06:16:45;;;;;;;12.43;2.50;;;6.10;99.90;;;;;;5048758;28;20866;-43
2022/01/09 06:19:11;;;;;;;12.68;2.67;;;6.10;99.90;;;;;;5050556;28;20029;-43
2022/01/09 06:21:39;;;;;;;16.05;3.17;;;6.10;99.90;;;;;;5049797;28;20461;-44
2022/01/09 06:24:05;;;;;;;13.15;2.63;;;6.10;99.90;;;;;;5049179;28;20403;-43
2022/01/09 06:26:31;;;;;;;12.57;3.00;;;6.10;99.90;;;;;;5049719;28;20052;-42
2022/01/09 06:28:56;;;;;;;13.95;2.80;;;6.10;99.90;;;;;;5050164;28;20060;-43
2022/01/09 06:31:22;;;;;;;13.57;3.05;;;6.10;99.90;;;;;;5049335;28;20025;-43
2022/01/09 06:33:48;;;;;;;12.77;2.80;;;6.10;99.90;;;;;;5049677;28;20056;-43
2022/01/09 06:36:14;;;;;;;13.77;2.67;;;6.10;99.90;;;;;;5050046;28;20029;-44
2022/01/09 06:38:39;;;;;;;16.13;2.78;;;6.10;99.90;;;;;;5048636;28;20025;-44
2022/01/09 06:41:05;;;;;;;14.43;2.95;;;6.00;99.90;;;;;;5049764;28;20025;-43
2022/01/09 06:43:30;;;;;;;12.23;2.33;;;6.00;99.90;;;;;;5049989;28;20029;-44
2022/01/09 06:45:56;;;;;;;11.20;2.90;;;6.00;99.90;;;;;;5049026;28;20025;-44
2022/01/09 06:48:24;;;;;;;9.13;2.97;;;6.00;99.90;;;;;;5050071;28;20041;-43
2022/01/09 06:50:50;;;;;;;12.48;2.15;;;5.90;99.90;;;;;;5049405;28;20025;-43
2022/01/09 06:53:15;;;;;;;17.55;2.58;;;5.80;99.90;;;;;;5048641;28;20242;-43
2022/01/09 06:55:44;;;;;;;11.52;2.70;;;5.80;99.90;;;;;;5049696;28;20465;-44
2022/01/09 06:58:10;;;;;;;13.15;3.00;;;5.70;99.90;;;;;;5048797;28;20436;-43
2022/01/09 07:00:36;;;;;;;14.27;2.58;;;5.70;99.90;;;;;;5049544;28;20037;-44
2022/01/09 07:03:01;;;;;;;12.35;2.33;;;5.60;99.90;;;;;;5049064;28;20028;-43
2022/01/09 07:05:27;;;;;;;14.27;3.08;;;5.60;99.90;;;;;;5048584;28;20122;-44
2022/01/09 07:07:55;;;;;;;12.57;2.88;;;5.60;99.90;;;;;;5048988;28;20043;-43
2022/01/09 07:10:27;;;;;;;15.18;3.13;;;5.70;99.90;;;;;;5049745;28;20081;-43
2022/01/09 07:12:52;;;;;;;14.38;2.50;;;5.70;99.90;;;;;;5048292;28;20045;-44
2022/01/09 07:15:18;;;;;;;11.15;2.88;;;5.70;99.90;;;;;;5049516;28;20025;-43
2022/01/09 07:17:43;;;;;;;11.00;2.20;;;5.70;99.90;;;;;;5049279;28;20433;-44
2022/01/09 07:20:09;;;;;;;9.25;2.60;;;5.70;99.90;;;;;;5048191;28;20066;-43
2022/01/09 07:22:35;;;;;;;8.32;2.55;;;5.70;99.90;;;;;;5048865;28;20024;-43
2022/01/09 07:25:00;;;;;;;14.27;2.50;;;5.70;99.90;;;;;;5048936;28;20597;-43
2022/01/09 07:27:26;;;;;;;5.13;2.00;;;5.70;99.90;;;;;;5048491;28;20488;-44
2022/01/09 07:29:52;;;;;;;10.68;2.25;;;5.70;99.90;;;;;;5048492;28;20024;-43
2022/01/09 07:32:20;;;;;;;14.20;2.85;;;5.70;99.90;;;;;;5049094;28;20033;-43
2022/01/09 07:34:46;;;;;;;7.70;2.20;;;5.80;99.90;;;;;;5047426;28;20060;-43
2022/01/09 07:37:11;;;;;;;11.00;2.90;;;5.70;99.90;;;;;;5049174;28;20562;-43
2022/01/09 07:39:37;;;;;;;11.48;3.35;;;5.80;99.90;;;;;;5048471;28;20021;-44
2022/01/09 07:42:04;;;;;;;10.88;2.22;;;5.80;99.90;;;;;;5048186;28;20037;-44
2022/01/09 07:44:30;;;;;;;11.40;2.53;;;5.80;99.90;;;;;;5048469;28;20028;-43
2022/01/09 07:46:56;;;;;;;10.68;2.40;;;5.70;99.90;;;;;;5048159;28;20040;-43
2022/01/09 07:49:23;;;;;;;10.25;2.50;;;5.70;99.90;;;;;;5048096;28;20055;-43
2022/01/09 07:51:49;;;;;;;9.63;2.92;;;5.70;99.90;;;;;;5047993;28;20052;-43
2022/01/09 07:54:15;;;;;;;11.15;2.20;;;5.60;99.90;;;;;;5048148;28;20032;-43
2022/01/09 07:56:40;;;;;;;12.13;2.78;;;5.50;99.90;;;;;;5047833;28;20389;-43
2022/01/09 07:59:06;;;;;;;15.38;3.97;;;5.50;99.90;;;;;;5047919;28;20504;-43
2022/01/09 08:01:31;;;;;;;9.05;1.85;;;5.50;99.90;;;;;;5048000;28;20425;-43
2022/01/09 08:03:57;;;;;;;9.27;2.78;;;5.50;99.90;;;;;;5048210;28;20029;-44
2022/01/09 08:06:22;;;;;;;11.20;2.58;;;5.40;99.90;;;;;;5047920;28;20020;-44
2022/01/09 08:08:48;;;;;;;6.45;1.77;;;5.40;99.90;;;;;;5047887;28;20112;-44
2022/01/09 08:11:15;;;;;;;10.45;2.20;;;5.40;99.90;;;;;;5047756;28;20477;-44
2022/01/09 08:13:40;;;;;;;12.68;2.40;;;5.30;99.90;;;;;;5047708;28;20041;-43
2022/01/09 08:16:06;;;;;;;8.20;2.10;;;5.30;99.90;;;;;;5046876;28;20107;-42
2022/01/09 08:18:32;;;;;;;6.10;1.95;;;5.30;99.90;;;;;;5048068;28;20033;-44
2022/01/09 08:20:57;;;;;;;8.30;1.70;;;5.40;99.90;;;;;;5047762;28;20060;-43
2022/01/09 08:23:23;;;;;;;13.13;2.35;;;5.40;99.90;;;;;;5046875;28;20534;-43
2022/01/09 08:25:48;;;;;;;6.88;1.77;;;5.40;99.90;;;;;;5048003;28;20104;-48
2022/01/09 08:28:13;;;;;;;8.27;1.92;;;5.40;99.90;;;;;;5047712;28;20040;-43
2022/01/09 08:30:39;;;;;;;10.20;1.95;;;5.50;99.90;;;;;;5046942;28;20029;-43
2022/01/09 08:33:05;;;;;;;9.73;2.20;;;5.50;99.90;;;;;;5047845;28;20449;-43
2022/01/09 08:35:31;;;;;;;9.27;2.10;;;5.50;99.90;;;;;;5047907;28;20406;-42
2022/01/09 08:37:56;;;;;;;7.90;2.00;;;5.60;99.90;;;;;;5044042;28;20090;-44
2022/01/09 08:40:22;;;;;;;7.25;1.85;;;5.60;99.90;;;;;;5047059;28;20025;-44
2022/01/09 08:42:50;;;;;;;8.10;2.15;;;5.60;99.90;;;;;;5046581;28;20044;-44
2022/01/09 08:45:16;;;;;;;6.68;2.05;;;5.50;99.90;;;;;;5046596;28;20025;-43
2022/01/09 08:47:43;;;;;;;9.55;1.80;;;5.50;99.90;;;;;;5046336;28;20048;-43
2022/01/09 08:50:10;;;;;;;7.82;2.00;;;5.40;99.90;;;;;;5046857;28;20107;-44
2022/01/09 08:52:36;;;;;;;11.95;2.13;;;5.40;99.90;;;;;;5045121;28;20776;-43
2022/01/09 08:55:04;;;;;;;11.65;2.13;;;5.40;99.90;;;;;;5046868;28;20013;-44
2022/01/09 08:57:29;;;;;;;9.23;2.40;;;5.30;99.90;;;;;;5045192;28;20025;-43
2022/01/09 08:59:55;;;;;;;10.07;2.17;;;5.40;99.90;;;;;;5046438;28;20079;-43
2022/01/09 09:02:20;;;;;;;7.85;1.95;;;5.40;99.90;;;;;;5046348;28;20036;-43
2022/01/09 09:04:46;;;;;;;7.93;1.67;;;5.30;99.90;;;;;;5045254;28;20472;-44
2022/01/09 09:07:12;;;;;;;11.25;2.30;;;5.30;99.90;;;;;;5046707;28;20021;-42
2022/01/09 09:09:38;;;;;;;13.57;1.90;;;5.30;99.90;;;;;;5045665;28;20025;-43
2022/01/09 09:12:07;;;;;;;7.00;2.22;;;5.30;99.90;;;;;;5045171;28;20025;-43
2022/01/09 09:14:33;;;;;;;8.38;2.38;;;5.30;99.90;;;;;;5035606;28;20064;-44
2022/01/09 09:16:58;;;;;;;7.05;2.70;;;5.30;99.90;;;;;;5045825;28;20052;-45
2022/01/09 09:19:24;;;;;;;9.38;2.10;;;5.40;99.90;;;;;;5045822;28;20037;-43
2022/01/09 09:21:50;;;;;;;7.30;2.15;;;5.50;99.90;;;;;;5046312;28;20028;-43
2022/01/09 09:24:15;;;;;;;9.35;2.08;;;5.60;99.90;;;;;;5046324;28;20082;-44
2022/01/09 09:26:41;;;;;;;12.70;2.40;;;5.70;99.90;;;;;;5045168;28;20025;-43
2022/01/09 09:29:07;;;;;;;7.05;1.75;;;5.80;99.90;;;;;;5046221;28;20029;-44
2022/01/09 09:31:33;;;;;;;8.85;2.10;;;5.90;99.90;;;;;;5045846;28;20033;-43
2022/01/09 09:33:58;;;;;;;6.70;2.38;;;6.00;99.90;;;;;;5045322;28;20083;-43
2022/01/09 09:36:24;;;;;;;10.07;2.35;;;6.10;99.90;;;;;;5046187;28;20079;-43
2022/01/09 09:38:51;;;;;;;7.95;1.88;;;6.10;99.90;;;;;;5045314;28;20028;-43
2022/01/09 09:41:16;;;;;;;9.10;1.98;;;6.20;99.90;;;;;;5045885;28;20028;-43
2022/01/09 09:43:42;;;;;;;7.13;1.90;;;6.20;99.90;;;;;;5045547;28;20465;-50
2022/01/09 09:46:08;;;;;;;8.02;1.92;;;6.30;99.90;;;;;;5045617;28;20399;-43
2022/01/09 09:48:33;;;;;;;10.88;2.00;;;6.30;99.90;;;;;;5044685;28;20067;-44
2022/01/09 09:50:59;;;;;;;8.70;2.53;;;6.30;99.90;;;;;;5045841;28;20028;-43
2022/01/09 09:53:27;;;;;;;10.02;2.58;;;6.30;99.90;;;;;;5045223;28;20048;-43
2022/01/09 09:55:53;;;;;;;10.27;2.10;;;6.20;99.90;;;;;;5034623;28;20037;-43
2022/01/09 09:58:22;;;;;;;13.68;2.58;;;6.20;99.90;;;;;;5045930;28;20032;-44
2022/01/09 10:00:52;;;;;;;13.73;3.85;;;6.10;99.90;;;;;;5044562;28;20017;-43
2022/01/09 10:03:29;;;;;;;8.38;2.47;;;6.10;99.90;;;;;;5046007;28;20033;-44
2022/01/09 10:05:55;;;;;;;10.93;2.70;;;6.10;99.90;;;;;;5044312;28;20032;-42
2022/01/09 10:08:21;;;;;;;7.38;2.38;;;6.10;99.90;;;;;;5045998;28;20602;-44
2022/01/09 10:10:47;;;;;;;9.98;2.40;;;6.10;99.90;;;;;;5046174;28;20017;-43
2022/01/09 10:13:18;;;;;;;10.07;2.63;;;6.20;99.90;;;;;;5046845;28;20045;-45
2022/01/09 10:15:56;;;;;;;7.70;2.47;;;6.20;99.90;;;;;;5045468;28;20021;-42
2022/01/09 10:18:41;;;;;;;8.60;1.60;;;6.20;99.90;;;;;;5046654;28;20033;-44
2022/01/09 10:21:12;;;;;;;10.90;2.35;;;6.30;99.90;;;;;;5048776;28;20079;-43
2022/01/09 10:24:07;;;;;;;7.57;2.30;;;6.30;99.90;;;;;;5049603;28;20028;-43
2022/01/09 10:26:38;;;;;;;12.98;2.55;;;6.30;99.90;;;;;;5045498;28;20402;-42
2022/01/09 10:29:06;;;;;;;8.32;2.25;;;6.40;99.90;;;;;;5049066;28;20036;-43
2022/01/09 10:31:42;;;;;;;9.30;1.92;;;6.40;99.90;;;;;;5049337;28;20009;-42
2022/01/09 10:34:10;;;;;;;7.90;2.40;;;6.40;99.90;;;;;;5049729;28;20039;-44
2022/01/09 10:36:48;;;;;;;8.93;2.55;;;6.50;99.90;;;;;;5051408;28;20052;-43
2022/01/09 10:39:19;;;;;;;7.32;2.10;;;6.50;99.90;;;;;;5050893;28;20033;-43
2022/01/09 10:41:59;;;;;;;8.75;2.22;;;6.50;99.90;;;;;;5049608;28;20017;-43
2022/01/09 10:44:31;;;;;;;8.57;2.80;;;6.50;99.90;;;;;;5049064;28;20086;-43
2022/01/09 10:47:00;;;;;;;8.20;2.42;;;6.50;99.90;;;;;;5049513;28;20060;-44
2022/01/09 10:49:41;;;;;;;12.45;3.08;;;6.60;99.90;;;;;;5049603;28;20060;-43
2022/01/09 10:52:14;;;;;;;10.68;2.58;;;6.60;99.90;;;;;;5048232;28;20133;-43
2022/01/09 10:54:48;;;;;;;9.43;2.45;;;6.70;99.90;;;;;;5049204;28;20124;-43
2022/01/09 10:57:20;;;;;;;10.55;2.97;;;6.80;99.90;;;;;;5049122;28;20059;-43
2022/01/09 10:59:46;;;;;;;8.20;2.40;;;6.80;99.90;;;;;;5049580;28;20036;-44
2022/01/09 11:02:12;;;;;;;9.95;2.65;;;6.70;99.90;;;;;;5048882;28;20039;-43
2022/01/09 11:04:43;;;;;;;11.50;2.13;;;6.60;99.90;;;;;;5048858;28;20021;-42
2022/01/09 11:07:09;;;;;;;8.13;2.03;;;6.60;99.90;;;;;;5049546;28;20490;-42
2022/01/09 11:09:42;;;;;;;13.82;3.30;;;6.50;99.90;;;;;;5048888;28;20029;-43
2022/01/09 11:12:08;;;;;;;8.48;2.28;;;6.50;99.90;;;;;;5048218;28;20025;-43
2022/01/09 11:14:40;;;;;;;8.95;2.90;;;6.60;99.90;;;;;;5048757;28;20033;-43
2022/01/09 11:17:08;;;;;;;12.02;3.78;;;6.70;99.90;;;;;;5049120;28;20033;-43
2022/01/09 11:19:34;;;;;;;8.82;2.17;;;6.80;99.90;;;;;;5047747;28;20067;-44
2022/01/09 11:22:03;;;;;;;10.98;2.50;;;7.00;99.90;;;;;;5048756;28;20048;-42
2022/01/09 11:24:55;;;;;;;11.07;2.80;;;7.10;99.90;;;;;;5048546;28;20378;-43
2022/01/09 11:27:43;;;;;;;9.02;2.10;;;7.10;99.90;;;;;;5048385;28;20104;-44
2022/01/09 11:30:19;;;;;;;11.75;2.50;;;7.10;99.90;;;;;;5049187;28;20033;-44
2022/01/09 11:32:48;;;;;;;12.65;2.60;;;7.10;99.90;;;;;;5045933;28;20036;-44
2022/01/09 11:35:25;;;;;;;9.73;2.45;;;7.00;99.90;;;;;;5048738;28;20037;-43
2022/01/09 11:38:13;;;;;;;11.82;2.50;;;7.00;99.90;;;;;;5048386;28;20091;-43
2022/01/09 11:40:39;;;;;;;10.40;2.22;;;7.10;99.90;;;;;;5048216;28;20115;-43
2022/01/09 11:43:16;;;;;;;9.35;2.15;;;7.00;99.90;;;;;;5048390;28;20033;-42
2022/01/09 11:45:57;;;;;;;9.20;1.95;;;7.00;99.90;;;;;;5048448;28;20021;-44
2022/01/09 11:48:53;;;;;;;6.78;2.22;;;6.90;99.90;;;;;;5047848;28;20033;-43
2022/01/09 11:51:21;;;;;;;9.73;2.33;;;6.80;99.90;;;;;;5028937;28;20032;-44
2022/01/09 11:54:00;;;;;;;4.55;1.55;;;6.80;99.90;;;;;;5044750;28;20412;-44
2022/01/09 11:56:45;;;;;;;8.82;2.22;;;6.80;99.90;;;;;;5029280;28;20090;-43
2022/01/09 11:59:22;;;;;;;10.75;2.58;;;6.80;99.90;;;;;;5046789;28;20493;-43
2022/01/09 12:01:53;;;;;;;5.35;1.65;;;6.70;99.90;;;;;;5047205;28;20036;-44
2022/01/09 12:04:30;;;;;;;8.27;1.95;;;6.70;99.90;;;;;;5046555;28;20033;-43
2022/01/09 12:07:10;;;;;;;7.40;2.70;;;6.80;99.90;;;;;;5048698;28;20057;-43
2022/01/09 12:09:41;;;;;;;9.02;2.30;;;6.80;99.90;;;;;;5047051;28;20104;-43
2022/01/09 12:12:11;;;;;;;9.32;2.20;;;6.80;99.90;;;;;;5047819;28;20159;-42
2022/01/09 12:14:53;;;;;;;7.70;2.17;;;6.80;99.90;;;;;;5046858;28;20476;-42
2022/01/09 12:17:22;;;;;;;12.25;2.67;;;6.80;99.90;;;;;;5048154;28;20040;-45
2022/01/09 12:20:09;;;;;;;12.93;2.58;;;6.80;99.90;;;;;;5047800;28;20112;-43
2022/01/09 12:22:46;;;;;;;12.63;2.67;;;6.80;99.90;;;;;;5047179;28;20063;-42
2022/01/09 12:25:24;;;;;;;14.57;2.80;;;6.90;99.90;;;;;;5048151;28;20029;-44
2022/01/09 12:27:54;;;;;;;13.50;2.55;;;6.90;99.90;;;;;;5047848;28;20025;-43
2022/01/09 12:30:44;;;;;;;13.88;2.83;;;7.00;99.90;;;;;;5046813;28;20032;-44
2022/01/09 12:33:14;;;;;;;10.00;2.55;;;7.10;99.90;;;;;;5048014;28;20120;-43
2022/01/09 12:35:45;;;;;;;6.22;1.83;;;7.20;99.90;;;;;;5045907;28;20059;-43
2022/01/09 12:38:16;;;;;;;9.55;2.80;;;7.20;99.90;;;;;;5047629;28;20029;-42
2022/01/09 12:40:42;;;;;;;9.27;2.35;;;7.30;99.90;;;;;;5047250;28;20060;-43
2022/01/09 12:43:08;;;;;;;11.73;2.30;;;7.30;99.90;;;;;;5046790;28;20059;-43
2022/01/09 12:45:40;;;;;;;7.07;2.40;;;7.20;99.90;;;;;;5047074;28;20033;-44
2022/01/09 12:48:06;;;;;;;11.38;2.60;;;7.20;99.90;;;;;;5047548;28;20044;-42
2022/01/09 12:50:37;;;;;;;7.25;2.08;;;7.20;99.90;;;;;;5046569;28;20032;-43
2022/01/09 12:53:16;;;;;;;7.57;2.00;;;7.30;99.90;;;;;;5046916;28;20136;-43